N0,26 Fumimaru — JK5398 — position and weather

sailwx.info

Track history (hours):
 
Tides and Currents Weather Stations Pressure Air Temp Water Temp Dewpoint Dewpoint Depression Visibility Wind Speed Wind Dir Waves Ship Positions

N0,26 Fumimaru

Last reported at 2015-Apr-02 08:32 UTC. Time now 2015-May-04 21:05 UTC.
Position N 34°37' E 135°09'.
Warning: this ship's position is 32 days out of date.

Length 39 m; draft 3.6 m.

Type: Ship. MMSI: 431400427.

Date/timePositionNaut miles runAvg speedWind from/ knotsBaromVisibWave heightAir tempDewpointWater temp
2015-Apr-02 08:32N 34°37' E 135°09'10 9.8
2015-Apr-02 07:33N 34°37' E 135°20'6 1.5
2015-Apr-02 03:05N 34°40' E 135°27'0 0.0
2015-Apr-02 02:29N 34°40' E 135°27'0 0.0
2015-Apr-02 01:05N 34°40' E 135°27'0 0.0
2015-Apr-02 00:29N 34°40' E 135°27'0 0.0
2015-Apr-01 23:11N 34°40' E 135°27'0 0.0
2015-Apr-01 22:29N 34°40' E 135°27'0 0.0
2015-Apr-01 21:29N 34°40' E 135°27'0 0.0
2015-Apr-01 20:29N 34°40' E 135°27'0 0.0
2015-Apr-01 19:11N 34°40' E 135°27'0 0.0
2015-Apr-01 18:11N 34°40' E 135°27'0 0.0
2015-Apr-01 17:29N 34°40' E 135°27'0 0.0
2015-Apr-01 16:30N 34°40' E 135°27'0 0.0
2015-Apr-01 15:29N 34°40' E 135°27'0 0.0
2015-Apr-01 14:23N 34°40' E 135°27'0 0.0
2015-Apr-01 13:17N 34°40' E 135°27'0 0.0
2015-Apr-01 12:29N 34°40' E 135°27'0 0.0
2015-Apr-01 11:29N 34°40' E 135°27'0 0.0
2015-Apr-01 10:11N 34°40' E 135°27'3 0.8
2015-Apr-01 06:32N 34°40' E 135°24'6 5.6
2015-Apr-01 05:33N 34°43' E 135°18'3 2.8
2015-Apr-01 04:32N 34°40' E 135°19'5 4.7
2015-Apr-01 03:33N 34°36' E 135°15'5 4.8
2015-Apr-01 02:32N 34°35' E 135°10'5 5.1
2015-Apr-01 01:28N 34°36' E 135°03'  
Track history (hours):
 
Tides and Currents Weather Stations Pressure Air Temp Water Temp Dewpoint Dewpoint Depression Visibility Wind Speed Wind Dir Waves Ship Positions

N0,26 Fumimaru

Last reported at 2015-Apr-02 08:32 UTC. Time now 2015-May-04 21:05 UTC.
Position N 34°37' E 135°09'.
Warning: this ship's position is 32 days out of date.

Length 39 m; draft 3.6 m.

Type: Ship. MMSI: 431400427.

Date/timePositionNaut miles runAvg speedWind from/ knotsBaromVisibWave heightAir tempDewpointWater temp
2015-Apr-02 08:32N 34°37' E 135°09'10 9.8
2015-Apr-02 07:33N 34°37' E 135°20'6 1.5
2015-Apr-02 03:05N 34°40' E 135°27'0 0.0
2015-Apr-02 02:29N 34°40' E 135°27'0 0.0
2015-Apr-02 01:05N 34°40' E 135°27'0 0.0
2015-Apr-02 00:29N 34°40' E 135°27'0 0.0
2015-Apr-01 23:11N 34°40' E 135°27'0 0.0
2015-Apr-01 22:29N 34°40' E 135°27'0 0.0
2015-Apr-01 21:29N 34°40' E 135°27'0 0.0
2015-Apr-01 20:29N 34°40' E 135°27'0 0.0
2015-Apr-01 19:11N 34°40' E 135°27'0 0.0
2015-Apr-01 18:11N 34°40' E 135°27'0 0.0
2015-Apr-01 17:29N 34°40' E 135°27'0 0.0
2015-Apr-01 16:30N 34°40' E 135°27'0 0.0
2015-Apr-01 15:29N 34°40' E 135°27'0 0.0
2015-Apr-01 14:23N 34°40' E 135°27'0 0.0
2015-Apr-01 13:17N 34°40' E 135°27'0 0.0
2015-Apr-01 12:29N 34°40' E 135°27'0 0.0
2015-Apr-01 11:29N 34°40' E 135°27'0 0.0
2015-Apr-01 10:11N 34°40' E 135°27'3 0.8
2015-Apr-01 06:32N 34°40' E 135°24'6 5.6
2015-Apr-01 05:33N 34°43' E 135°18'3 2.8
2015-Apr-01 04:32N 34°40' E 135°19'5 4.7
2015-Apr-01 03:33N 34°36' E 135°15'5 4.8
2015-Apr-01 02:32N 34°35' E 135°10'5 5.1
2015-Apr-01 01:28N 34°36' E 135°03'  

Dump ship's entire track history